createdAt,value
2023-05-15T00:00:48.987Z,152.53
2023-05-15T00:03:17.585Z,152.90
2023-05-15T00:05:45.699Z,152.00
2023-05-15T00:08:13.566Z,151.93
2023-05-15T00:10:44.995Z,152.80
2023-05-15T00:13:18.791Z,152.70
2023-05-15T00:15:48.074Z,152.27
2023-05-15T00:18:15.994Z,152.17
2023-05-15T00:20:43.831Z,152.33
2023-05-15T00:23:11.682Z,152.53
2023-05-15T00:25:39.531Z,152.33
2023-05-15T00:28:07.344Z,152.17
2023-05-15T00:30:35.151Z,152.03
2023-05-15T00:33:04.665Z,152.73
2023-05-15T00:35:33.628Z,152.60
2023-05-15T00:38:01.528Z,152.10
2023-05-15T00:40:31.768Z,152.00
2023-05-15T00:43:00.547Z,152.90
2023-05-15T00:45:29.639Z,152.40
2023-05-15T00:47:59.188Z,152.37
2023-05-15T00:50:29.686Z,151.90
2023-05-15T00:52:58.082Z,151.87
2023-05-15T00:55:28.145Z,151.87
2023-05-15T00:57:58.536Z,152.23
2023-05-15T01:00:26.774Z,152.50
2023-05-15T01:02:55.426Z,152.43
2023-05-15T01:05:23.592Z,152.53
2023-05-15T01:08:00.816Z,151.00
2023-05-15T01:10:29.056Z,152.53
2023-05-15T01:12:58.132Z,151.83
2023-05-15T01:15:26.128Z,152.03
2023-05-15T01:17:54.281Z,151.37
2023-05-15T01:20:24.424Z,151.47
2023-05-15T01:23:07.112Z,152.23
2023-05-15T01:26:11.822Z,152.37
2023-05-15T01:28:46.382Z,152.23
2023-05-15T01:31:17.421Z,152.73
2023-05-15T01:33:47.912Z,151.77
2023-05-15T01:36:20.072Z,151.90
2023-05-15T01:38:53.504Z,152.00
2023-05-15T01:41:25.518Z,151.77
2023-05-15T01:44:01.441Z,151.20
2023-05-15T01:46:32.032Z,152.37
2023-05-15T01:49:02.818Z,151.93
2023-05-15T01:51:32.475Z,152.13
2023-05-15T01:54:01.504Z,152.07
2023-05-15T01:56:30.337Z,152.10
2023-05-15T01:59:01.239Z,151.70
2023-05-15T02:01:33.314Z,151.40
2023-05-15T02:04:02.444Z,151.70
2023-05-15T02:06:33.366Z,151.97
2023-05-15T02:09:03.900Z,151.70
2023-05-15T02:11:32.053Z,152.07
2023-05-15T02:14:02.511Z,151.67
2023-05-15T02:16:30.435Z,151.67
2023-05-15T02:18:58.352Z,151.83
2023-05-15T02:21:26.880Z,151.60
2023-05-15T02:23:54.736Z,151.60
2023-05-15T02:26:32.403Z,152.23
2023-05-15T02:29:13.161Z,151.87
2023-05-15T02:31:47.499Z,151.43
2023-05-15T02:34:24.430Z,151.27
2023-05-15T02:36:54.025Z,151.43
2023-05-15T02:39:24.967Z,152.27
2023-05-15T02:41:53.912Z,152.00
2023-05-15T02:44:24.456Z,151.87
2023-05-15T02:46:54.542Z,151.90
2023-05-15T02:49:23.492Z,151.57
2023-05-15T02:51:52.112Z,152.00
2023-05-15T02:54:20.392Z,151.87
2023-05-15T02:56:48.211Z,151.83
2023-05-15T02:59:19.720Z,150.90
2023-05-15T03:01:49.586Z,151.20
2023-05-15T03:04:17.687Z,150.53
2023-05-15T03:06:47.688Z,151.73
2023-05-15T03:09:17.788Z,151.57
2023-05-15T03:11:46.036Z,151.50
2023-05-15T03:14:14.640Z,150.97
2023-05-15T03:16:43.034Z,151.60
2023-05-15T03:19:12.686Z,151.37
2023-05-15T03:21:40.632Z,151.33
2023-05-15T03:24:08.864Z,151.37
2023-05-15T03:26:37.403Z,151.63
2023-05-15T03:29:05.263Z,152.23
2023-05-15T03:31:33.199Z,151.20
2023-05-15T03:34:01.079Z,151.77
2023-05-15T03:36:30.244Z,151.03
2023-05-15T03:38:59.360Z,151.17
2023-05-15T03:41:28.806Z,151.43
2023-05-15T03:43:56.618Z,151.27
2023-05-15T03:46:24.503Z,150.67
2023-05-15T03:48:54.385Z,150.27
2023-05-15T03:51:23.914Z,151.47
2023-05-15T03:53:56.058Z,151.23
2023-05-15T03:56:24.310Z,150.80
2023-05-15T03:58:52.155Z,151.17
2023-05-15T04:01:20.059Z,151.10
2023-05-15T04:03:47.898Z,151.03
2023-05-15T04:06:15.991Z,151.50
2023-05-15T04:08:43.827Z,150.33
2023-05-15T04:11:13.043Z,151.60
2023-05-15T04:13:40.849Z,150.70
2023-05-15T04:16:09.838Z,151.80
2023-05-15T04:18:38.443Z,151.20
2023-05-15T04:21:06.297Z,150.87
2023-05-15T04:23:34.183Z,151.13
2023-05-15T04:26:02.488Z,151.37
2023-05-15T04:28:32.382Z,151.43
2023-05-15T04:31:02.096Z,151.17
2023-05-15T04:33:29.967Z,151.13
2023-05-15T04:35:57.877Z,151.67
2023-05-15T04:38:25.705Z,151.23
2023-05-15T04:40:53.524Z,151.13
2023-05-15T04:43:21.347Z,150.77
2023-05-15T04:45:50.693Z,151.00
2023-05-15T04:48:19.170Z,150.90
2023-05-15T04:50:47.042Z,151.73
2023-05-15T04:53:15.289Z,151.00
2023-05-15T04:55:43.111Z,151.20
2023-05-15T04:58:10.997Z,151.67
2023-05-15T05:00:40.149Z,151.50
2023-05-15T05:03:09.383Z,150.77
2023-05-15T05:05:37.304Z,151.00
2023-05-15T05:08:05.165Z,150.63
2023-05-15T05:10:32.997Z,151.53
2023-05-15T05:13:00.829Z,150.87
2023-05-15T05:15:28.694Z,151.00
2023-05-15T05:17:56.725Z,151.17
2023-05-15T05:20:27.520Z,151.67
2023-05-15T05:22:55.551Z,151.20
2023-05-15T05:25:23.695Z,151.73
2023-05-15T05:27:51.868Z,151.03
2023-05-15T05:30:19.971Z,150.97
2023-05-15T05:32:47.814Z,151.70
2023-05-15T05:35:15.812Z,151.10
2023-05-15T05:37:45.310Z,151.30
2023-05-15T05:40:13.941Z,151.47
2023-05-15T05:42:42.366Z,151.10
2023-05-15T05:45:11.341Z,151.30
2023-05-15T05:47:39.188Z,151.67
2023-05-15T05:50:08.712Z,150.73
2023-05-15T05:52:36.529Z,152.30
2023-05-15T05:55:06.409Z,151.10
2023-05-15T05:57:34.314Z,151.00
2023-05-15T06:00:02.179Z,151.03
2023-05-15T06:02:37.154Z,151.27
2023-05-15T06:05:06.451Z,151.50
2023-05-15T06:07:35.053Z,151.20
2023-05-15T06:10:02.931Z,151.00
2023-05-15T06:12:32.112Z,151.17
2023-05-15T06:15:00.195Z,151.23
2023-05-15T06:17:28.040Z,150.73
2023-05-15T06:19:55.874Z,150.87
2023-05-15T06:22:23.698Z,150.57
2023-05-15T06:24:51.531Z,150.27
2023-05-15T06:27:19.349Z,150.27
2023-05-15T06:29:48.573Z,151.03
2023-05-15T06:32:16.355Z,151.10
2023-05-15T06:34:44.248Z,150.80
2023-05-15T06:37:12.603Z,150.33
2023-05-15T06:39:40.937Z,150.57
2023-05-15T06:42:08.921Z,151.10
2023-05-15T06:44:36.816Z,150.57
2023-05-15T06:47:06.899Z,150.43
2023-05-15T06:49:34.806Z,150.77
2023-05-15T06:52:02.690Z,150.37
2023-05-15T06:54:30.510Z,150.27
2023-05-15T06:56:58.346Z,150.67
2023-05-15T06:59:26.224Z,150.37
2023-05-15T07:01:56.028Z,150.97
2023-05-15T07:04:26.104Z,150.63
2023-05-15T07:06:53.969Z,150.43
2023-05-15T07:09:21.857Z,149.73
2023-05-15T07:11:49.682Z,150.67
2023-05-15T07:14:17.482Z,150.27
2023-05-15T07:16:47.017Z,150.50
2023-05-15T07:19:18.086Z,150.83
2023-05-15T07:21:47.391Z,150.80
2023-05-15T07:24:15.445Z,150.50
2023-05-15T07:26:54.388Z,151.40
2023-05-15T07:29:26.008Z,151.10
2023-05-15T07:31:53.961Z,150.23
2023-05-15T07:34:21.842Z,150.10
2023-05-15T07:36:51.057Z,150.83
2023-05-15T07:39:18.937Z,150.53
2023-05-15T07:41:47.476Z,150.50
2023-05-15T07:44:15.303Z,150.53
2023-05-15T07:46:43.279Z,151.63
2023-05-15T07:49:11.189Z,150.60
2023-05-15T07:51:38.982Z,151.13
2023-05-15T07:54:08.449Z,151.07
2023-05-15T07:56:36.280Z,150.83
2023-05-15T07:59:04.485Z,150.93
2023-05-15T08:01:32.880Z,150.73
2023-05-15T08:04:00.946Z,150.40
2023-05-15T08:06:28.875Z,151.47
2023-05-15T08:08:56.709Z,151.40
2023-05-15T08:11:25.955Z,150.73
2023-05-15T08:13:53.792Z,151.00
2023-05-15T08:16:21.668Z,151.07
2023-05-15T08:18:52.950Z,150.27
2023-05-15T08:21:20.831Z,151.10
2023-05-15T08:23:49.127Z,150.60
2023-05-15T08:26:17.220Z,150.47
2023-05-15T08:28:46.627Z,151.17
2023-05-15T08:31:14.736Z,150.20
2023-05-15T08:33:42.616Z,150.77
2023-05-15T08:36:11.043Z,151.17
2023-05-15T08:38:38.913Z,151.00
2023-05-15T08:41:11.904Z,151.00
2023-05-15T08:43:41.548Z,151.27
2023-05-15T08:46:10.873Z,151.57
2023-05-15T08:48:41.374Z,150.73
2023-05-15T08:51:10.763Z,150.77
2023-05-15T08:53:38.960Z,150.33
2023-05-15T08:56:07.311Z,151.10
2023-05-15T08:58:35.318Z,151.93
2023-05-15T09:01:04.037Z,151.30
2023-05-15T09:03:33.400Z,151.17
2023-05-15T09:06:02.207Z,151.50
2023-05-15T09:08:33.579Z,151.30
2023-05-15T09:11:03.408Z,151.50
2023-05-15T09:13:31.508Z,150.70
2023-05-15T09:15:59.357Z,151.23
2023-05-15T09:18:27.870Z,151.87
2023-05-15T09:20:57.066Z,151.70
2023-05-15T09:23:26.404Z,152.00
2023-05-15T09:25:56.703Z,151.93
2023-05-15T09:28:29.934Z,151.97
2023-05-15T09:30:59.864Z,151.27
2023-05-15T09:33:32.940Z,151.80
2023-05-15T09:36:02.604Z,151.93
2023-05-15T09:38:33.096Z,151.50
2023-05-15T09:41:05.981Z,152.53
2023-05-15T09:43:37.337Z,151.93
2023-05-15T09:46:05.942Z,152.70
2023-05-15T09:48:34.037Z,152.17
2023-05-15T09:51:05.669Z,151.20
2023-05-15T09:53:33.706Z,151.70
2023-05-15T09:56:01.572Z,152.07
2023-05-15T09:58:30.159Z,152.33
2023-05-15T10:01:01.325Z,152.10
2023-05-15T10:03:29.296Z,151.33
2023-05-15T10:06:00.834Z,152.17
2023-05-15T10:08:32.127Z,152.53
2023-05-15T10:11:01.561Z,152.13
2023-05-15T10:13:32.436Z,152.17
2023-05-15T10:16:03.421Z,152.57
2023-05-15T10:18:34.275Z,152.73
2023-05-15T10:21:04.616Z,152.47
2023-05-15T10:23:37.548Z,152.20
2023-05-15T10:26:12.024Z,152.70
2023-05-15T10:28:41.826Z,152.23
2023-05-15T10:31:19.858Z,152.93
2023-05-15T10:33:48.989Z,153.33
2023-05-15T10:36:17.675Z,153.50
2023-05-15T10:38:48.607Z,153.27
2023-05-15T10:41:18.440Z,153.60
2023-05-15T10:43:47.644Z,153.57
2023-05-15T10:46:17.016Z,153.70
2023-05-15T10:48:45.076Z,153.43
2023-05-15T10:51:17.257Z,153.80
2023-05-15T10:53:47.185Z,153.50
2023-05-15T10:56:17.025Z,153.80
2023-05-15T10:58:49.116Z,154.23
2023-05-15T11:01:27.957Z,154.70
2023-05-15T11:04:13.329Z,154.03
2023-05-15T11:06:42.402Z,153.80
2023-05-15T11:09:40.099Z,154.03
2023-05-15T11:12:10.111Z,153.40
2023-05-15T11:14:40.212Z,153.87
2023-05-15T11:17:10.457Z,154.23
2023-05-15T11:19:58.467Z,153.73
2023-05-15T11:22:31.650Z,154.37
2023-05-15T11:25:02.453Z,154.47
2023-05-15T11:27:31.977Z,154.03
2023-05-15T11:30:12.309Z,154.67
2023-05-15T11:32:51.350Z,154.27
2023-05-15T11:35:22.326Z,153.30
2023-05-15T11:37:51.754Z,153.43
2023-05-15T11:40:25.968Z,153.97
2023-05-15T11:43:01.690Z,154.20
2023-05-15T11:45:31.758Z,154.63
2023-05-15T11:48:03.268Z,154.20
2023-05-15T11:50:32.457Z,153.93
2023-05-15T11:53:04.476Z,154.00
2023-05-15T11:55:35.507Z,154.30
2023-05-15T11:58:04.072Z,154.50
2023-05-15T12:00:32.149Z,153.77
2023-05-15T12:03:00.134Z,154.30
2023-05-15T12:05:28.062Z,154.03
2023-05-15T12:07:55.918Z,153.87
2023-05-15T12:10:23.868Z,154.03
2023-05-15T12:12:53.286Z,153.73
2023-05-15T12:15:21.183Z,154.03
2023-05-15T12:17:49.560Z,154.20
2023-05-15T12:20:18.812Z,154.40
2023-05-15T12:22:46.710Z,153.53
2023-05-15T12:25:17.551Z,153.27
2023-05-15T12:27:45.669Z,154.07
2023-05-15T12:30:15.529Z,154.30
2023-05-15T12:32:43.733Z,154.20
2023-05-15T12:35:12.850Z,154.47
2023-05-15T12:37:42.861Z,154.07
2023-05-15T12:40:12.987Z,154.63
2023-05-15T12:42:42.553Z,153.97
2023-05-15T12:45:15.951Z,153.80
2023-05-15T12:47:44.689Z,153.67
2023-05-15T12:50:17.535Z,154.07
2023-05-15T12:52:51.893Z,152.83
2023-05-15T12:55:23.433Z,153.53
2023-05-15T12:57:51.355Z,153.93
2023-05-15T13:00:23.191Z,153.93
2023-05-15T13:02:53.694Z,154.30
2023-05-15T13:05:23.613Z,153.40
2023-05-15T13:07:52.411Z,154.10
2023-05-15T13:10:22.716Z,153.93
2023-05-15T13:12:52.339Z,153.63
2023-05-15T13:15:28.483Z,154.10
2023-05-15T13:18:00.542Z,154.23
2023-05-15T13:20:30.069Z,153.67
2023-05-15T13:22:57.920Z,154.47
2023-05-15T13:25:25.816Z,154.27
2023-05-15T13:27:54.075Z,154.60
2023-05-15T13:30:21.927Z,153.83
2023-05-15T13:32:52.523Z,153.63
2023-05-15T13:35:21.906Z,154.10
2023-05-15T13:37:49.913Z,153.90
2023-05-15T13:40:17.930Z,154.23
2023-05-15T13:42:46.067Z,154.27
2023-05-15T13:45:14.956Z,154.40
2023-05-15T13:47:43.103Z,153.50
2023-05-15T13:50:14.100Z,154.77
2023-05-15T13:52:43.208Z,154.63
2023-05-15T13:55:11.561Z,154.23
2023-05-15T13:57:40.355Z,154.13
2023-05-15T14:00:12.186Z,154.13
2023-05-15T14:02:40.202Z,153.97
2023-05-15T14:05:09.260Z,153.80
2023-05-15T14:07:38.543Z,153.60
2023-05-15T14:10:07.782Z,154.33
2023-05-15T14:12:35.972Z,153.73
2023-05-15T14:15:04.554Z,153.97
2023-05-15T14:17:32.501Z,154.07
2023-05-15T14:20:00.382Z,154.43
2023-05-15T14:22:28.275Z,154.27
2023-05-15T14:24:57.440Z,154.13
2023-05-15T14:27:25.279Z,154.37
2023-05-15T14:29:53.145Z,154.53
2023-05-15T14:32:21.082Z,154.30
2023-05-15T14:34:49.046Z,153.97
2023-05-15T14:37:17.054Z,152.97
2023-05-15T14:39:44.985Z,154.27
2023-05-15T14:42:14.127Z,154.27
2023-05-15T14:44:41.925Z,154.20
2023-05-15T14:47:12.523Z,154.43
2023-05-15T14:49:40.846Z,153.73
2023-05-15T14:52:10.180Z,154.67
2023-05-15T14:54:39.171Z,153.87
2023-05-15T14:57:07.516Z,152.97
2023-05-15T14:59:36.948Z,153.50
2023-05-15T15:02:04.887Z,155.23
2023-05-15T15:04:34.496Z,154.43
2023-05-15T15:07:05.287Z,153.97
2023-05-15T15:09:33.111Z,154.10
2023-05-15T15:12:01.063Z,153.63
2023-05-15T15:14:28.952Z,153.67
2023-05-15T15:16:58.374Z,153.60
2023-05-15T15:19:27.210Z,153.97
2023-05-15T15:21:55.080Z,153.97
2023-05-15T15:24:22.868Z,154.30
2023-05-15T15:26:50.689Z,154.63
2023-05-15T15:29:18.539Z,154.67
2023-05-15T15:31:46.536Z,154.17
2023-05-15T15:34:15.794Z,154.53
2023-05-15T15:36:43.649Z,154.37
2023-05-15T15:39:12.797Z,153.50
2023-05-15T15:41:40.603Z,154.57
2023-05-15T15:44:08.424Z,153.67
2023-05-15T15:46:36.282Z,154.60
2023-05-15T15:49:05.256Z,154.37
2023-05-15T15:51:35.799Z,154.13
2023-05-15T15:54:03.687Z,154.87
2023-05-15T15:56:31.581Z,154.30
2023-05-15T15:58:59.644Z,154.43
2023-05-15T16:01:28.271Z,153.97
2023-05-15T16:03:56.112Z,154.30
2023-05-15T16:06:23.985Z,153.97
2023-05-15T16:08:53.228Z,153.83
2023-05-15T16:11:21.395Z,153.60
2023-05-15T16:13:49.219Z,154.43
2023-05-15T16:16:17.139Z,154.20
2023-05-15T16:18:45.584Z,153.47
2023-05-15T16:21:13.926Z,154.37
2023-05-15T16:23:42.131Z,154.20
2023-05-15T16:26:11.881Z,154.43
2023-05-15T16:28:40.829Z,154.40
2023-05-15T16:31:09.370Z,154.50
2023-05-15T16:33:37.272Z,154.77
2023-05-15T16:36:05.928Z,154.27
2023-05-15T16:38:33.803Z,154.03
2023-05-15T16:41:02.106Z,153.30
2023-05-15T16:43:31.353Z,153.57
2023-05-15T16:45:59.324Z,154.33
2023-05-15T16:48:27.839Z,153.70
2023-05-15T16:50:55.642Z,153.43
2023-05-15T16:53:23.789Z,154.23
2023-05-15T16:55:51.701Z,153.60
2023-05-15T16:58:20.057Z,154.50
2023-05-15T17:00:49.269Z,153.60
2023-05-15T17:03:18.040Z,154.50
2023-05-15T17:05:46.120Z,153.90
2023-05-15T17:08:14.122Z,153.40
2023-05-15T17:10:41.929Z,154.57
2023-05-15T17:13:09.744Z,154.00
2023-05-15T17:15:37.575Z,154.03
2023-05-15T17:18:07.132Z,153.60
2023-05-15T17:20:35.030Z,154.43
2023-05-15T17:23:02.947Z,153.43
2023-05-15T17:25:30.805Z,153.13
2023-05-15T17:27:58.655Z,154.03
2023-05-15T17:30:26.799Z,154.17
2023-05-15T17:32:54.719Z,154.07
2023-05-15T17:35:24.169Z,154.47
2023-05-15T17:37:52.555Z,152.83
2023-05-15T17:40:20.437Z,154.27
2023-05-15T17:42:48.419Z,154.10
2023-05-15T17:45:16.338Z,154.37
2023-05-15T17:47:44.408Z,154.17
2023-05-15T17:50:12.660Z,154.10
2023-05-15T17:52:41.939Z,154.40
2023-05-15T17:55:10.565Z,153.77
2023-05-15T17:57:38.433Z,153.60
2023-05-15T18:00:07.614Z,154.53
2023-05-15T18:02:40.632Z,153.90
2023-05-15T18:05:10.050Z,154.13
2023-05-15T18:07:37.891Z,152.80
2023-05-15T18:10:09.098Z,154.03
2023-05-15T18:12:36.900Z,153.67
2023-05-15T18:15:05.419Z,153.73
2023-05-15T18:17:33.306Z,154.00
2023-05-15T18:20:01.704Z,153.93
2023-05-15T18:22:29.651Z,153.57
2023-05-15T18:24:57.426Z,152.97
2023-05-15T18:27:26.600Z,153.20
2023-05-15T18:29:56.170Z,153.73
2023-05-15T18:32:24.015Z,154.27
2023-05-15T18:34:51.816Z,154.40
2023-05-15T18:37:19.698Z,153.80
2023-05-15T18:39:47.957Z,153.27
2023-05-15T18:42:16.788Z,153.27
2023-05-15T18:44:47.480Z,153.53
2023-05-15T18:47:15.364Z,153.47
2023-05-15T18:49:45.711Z,153.50
2023-05-15T18:52:14.265Z,153.33
2023-05-15T18:54:42.210Z,153.37
2023-05-15T18:57:10.000Z,152.97
2023-05-15T18:59:37.905Z,153.20
2023-05-15T19:02:09.249Z,154.00
2023-05-15T19:04:37.126Z,153.50
2023-05-15T19:07:05.556Z,154.10
2023-05-15T19:09:34.254Z,153.43
2023-05-15T19:12:03.985Z,153.50
2023-05-15T19:14:33.379Z,153.37
2023-05-15T19:17:01.266Z,153.70
2023-05-15T19:19:30.763Z,153.10
2023-05-15T19:21:58.694Z,153.30
2023-05-15T19:24:26.581Z,153.43
2023-05-15T19:26:54.964Z,152.90
2023-05-15T19:29:23.210Z,153.03
2023-05-15T19:31:51.194Z,152.97
2023-05-15T19:34:19.189Z,153.63
2023-05-15T19:36:50.667Z,153.30
2023-05-15T19:39:20.604Z,152.97
2023-05-15T19:41:48.530Z,153.30
2023-05-15T19:44:16.459Z,153.67
2023-05-15T19:46:44.993Z,153.13
2023-05-15T19:49:12.880Z,153.43
2023-05-15T19:51:41.154Z,153.67
2023-05-15T19:54:11.155Z,153.17
2023-05-15T19:56:38.968Z,153.43
2023-05-15T19:59:06.782Z,153.23
2023-05-15T20:01:34.686Z,152.67
2023-05-15T20:04:02.649Z,153.17
2023-05-15T20:06:30.716Z,153.10
2023-05-15T20:08:58.630Z,152.90
2023-05-15T20:11:27.803Z,153.47
2023-05-15T20:13:55.729Z,152.70
2023-05-15T20:16:23.528Z,153.00
2023-05-15T20:18:55.207Z,152.67
2023-05-15T20:21:23.184Z,152.83
2023-05-15T20:23:51.101Z,153.30
2023-05-15T20:26:22.190Z,153.07
2023-05-15T20:28:51.367Z,152.37
2023-05-15T20:31:19.349Z,153.27
2023-05-15T20:33:47.311Z,152.37
2023-05-15T20:36:16.488Z,152.77
2023-05-15T20:38:44.931Z,152.23
2023-05-15T20:41:12.772Z,153.00
2023-05-15T20:43:40.607Z,153.17
2023-05-15T20:46:10.378Z,152.90
2023-05-15T20:48:38.264Z,153.07
2023-05-15T20:51:06.144Z,152.67
2023-05-15T20:53:33.977Z,153.10
2023-05-15T20:56:03.101Z,152.80
2023-05-15T20:58:31.019Z,152.63
2023-05-15T21:01:00.711Z,153.23
2023-05-15T21:03:30.306Z,152.70
2023-05-15T21:05:58.322Z,152.37
2023-05-15T21:08:27.684Z,152.53
2023-05-15T21:10:55.650Z,152.73
2023-05-15T21:13:23.572Z,153.13
2023-05-15T21:15:51.471Z,152.77
2023-05-15T21:18:19.672Z,153.17
2023-05-15T21:20:48.837Z,153.17
2023-05-15T21:23:16.856Z,152.93
2023-05-15T21:25:44.753Z,152.83
2023-05-15T21:28:12.638Z,152.60
2023-05-15T21:30:40.456Z,152.80
2023-05-15T21:33:08.333Z,152.50
2023-05-15T21:35:36.245Z,153.60
2023-05-15T21:38:05.441Z,152.67
2023-05-15T21:40:33.309Z,152.97
2023-05-15T21:43:01.212Z,153.00
2023-05-15T21:45:30.492Z,152.60
2023-05-15T21:47:58.546Z,152.27
2023-05-15T21:50:27.247Z,152.53
2023-05-15T21:52:55.568Z,152.77
2023-05-15T21:55:26.295Z,152.20
2023-05-15T21:57:54.254Z,153.07
2023-05-15T22:00:22.117Z,152.20
2023-05-15T22:02:50.106Z,152.70
2023-05-15T22:05:18.477Z,152.37
2023-05-15T22:07:46.383Z,152.80
2023-05-15T22:10:16.426Z,153.50
2023-05-15T22:12:46.692Z,153.10
2023-05-15T22:15:16.502Z,152.70
2023-05-15T22:17:44.437Z,152.43
2023-05-15T22:20:13.869Z,152.43
2023-05-15T22:22:43.769Z,152.73
2023-05-15T22:25:11.780Z,151.77
2023-05-15T22:27:39.968Z,153.03
2023-05-15T22:30:13.202Z,152.70
2023-05-15T22:32:41.393Z,152.00
2023-05-15T22:35:10.551Z,151.90
2023-05-15T22:37:40.572Z,152.17
2023-05-15T22:40:09.856Z,152.43
2023-05-15T22:42:37.692Z,152.40
2023-05-15T22:45:06.464Z,152.63
2023-05-15T22:47:35.725Z,152.40
2023-05-15T22:50:03.602Z,152.13
2023-05-15T22:52:31.490Z,153.03
2023-05-15T22:54:59.427Z,152.27
2023-05-15T22:57:27.766Z,152.57
2023-05-15T22:59:55.899Z,152.30
2023-05-15T23:02:23.731Z,152.40
2023-05-15T23:04:53.006Z,152.33
2023-05-15T23:07:20.791Z,151.67
2023-05-15T23:09:48.588Z,152.77
2023-05-15T23:12:16.443Z,152.63
2023-05-15T23:14:44.374Z,152.63
2023-05-15T23:17:13.066Z,152.87
2023-05-15T23:19:40.883Z,153.03
2023-05-15T23:22:10.072Z,152.43
2023-05-15T23:24:38.061Z,151.37
2023-05-15T23:27:06.308Z,152.93
2023-05-15T23:29:34.609Z,152.30
2023-05-15T23:32:02.482Z,152.23
2023-05-15T23:34:30.597Z,152.67
2023-05-15T23:36:58.394Z,152.27
2023-05-15T23:39:27.537Z,152.33
2023-05-15T23:41:55.934Z,152.13
2023-05-15T23:44:24.062Z,151.87
2023-05-15T23:46:51.926Z,151.47
2023-05-15T23:49:19.747Z,152.50
2023-05-15T23:51:47.541Z,152.27
2023-05-15T23:54:15.368Z,151.50
2023-05-15T23:56:44.542Z,151.87
2023-05-15T23:59:13.592Z,151.60
